sensor_id;sensor_type;location;lat;lon;timestamp;pressure;altitude;pressure_sealevel;temperature;humidity
62655;BME280;48717;55.556;37.816;2024-03-22T00:01:51;99888.88;;;-1.27;58.97
62655;BME280;48717;55.556;37.816;2024-03-22T00:04:18;99879.50;;;-1.25;59.00
62655;BME280;48717;55.556;37.816;2024-03-22T00:06:46;99885.34;;;-1.29;59.45
62655;BME280;48717;55.556;37.816;2024-03-22T00:09:13;99857.53;;;-1.52;59.62
62655;BME280;48717;55.556;37.816;2024-03-22T00:11:40;99883.41;;;-1.34;60.60
62655;BME280;48717;55.556;37.816;2024-03-22T00:14:07;99893.91;;;-1.30;59.69
62655;BME280;48717;55.556;37.816;2024-03-22T00:16:34;99865.44;;;-1.49;60.03
62655;BME280;48717;55.556;37.816;2024-03-22T00:19:01;99878.75;;;-1.41;59.85
62655;BME280;48717;55.556;37.816;2024-03-22T00:21:27;99892.84;;;-1.34;60.28
62655;BME280;48717;55.556;37.816;2024-03-22T00:23:54;99882.31;;;-1.39;60.60
62655;BME280;48717;55.556;37.816;2024-03-22T00:26:21;99879.56;;;-1.42;60.83
62655;BME280;48717;55.556;37.816;2024-03-22T00:28:47;99885.84;;;-1.37;60.60
62655;BME280;48717;55.556;37.816;2024-03-22T00:31:16;99882.22;;;-1.40;61.05
62655;BME280;48717;55.556;37.816;2024-03-22T00:33:43;99877.81;;;-1.43;60.61
62655;BME280;48717;55.556;37.816;2024-03-22T00:36:10;99885.31;;;-1.48;61.20
62655;BME280;48717;55.556;37.816;2024-03-22T00:38:37;99868.63;;;-1.54;60.97
62655;BME280;48717;55.556;37.816;2024-03-22T00:41:03;99867.88;;;-1.52;62.03
62655;BME280;48717;55.556;37.816;2024-03-22T00:43:30;99860.25;;;-1.67;61.63
62655;BME280;48717;55.556;37.816;2024-03-22T00:45:56;99869.06;;;-1.63;61.87
62655;BME280;48717;55.556;37.816;2024-03-22T00:48:23;99859.59;;;-1.63;62.17
62655;BME280;48717;55.556;37.816;2024-03-22T00:50:49;99873.50;;;-1.61;61.60
62655;BME280;48717;55.556;37.816;2024-03-22T00:53:15;99868.25;;;-1.62;61.51
62655;BME280;48717;55.556;37.816;2024-03-22T00:55:42;99869.81;;;-1.66;62.08
62655;BME280;48717;55.556;37.816;2024-03-22T00:58:08;99876.59;;;-1.68;62.05
62655;BME280;48717;55.556;37.816;2024-03-22T01:00:35;99877.41;;;-1.69;62.78
62655;BME280;48717;55.556;37.816;2024-03-22T01:03:21;99881.59;;;-1.71;62.31
62655;BME280;48717;55.556;37.816;2024-03-22T01:05:48;99874.53;;;-1.75;62.45
62655;BME280;48717;55.556;37.816;2024-03-22T01:08:14;99867.09;;;-1.86;62.37
62655;BME280;48717;55.556;37.816;2024-03-22T01:10:42;99867.44;;;-1.79;63.40
62655;BME280;48717;55.556;37.816;2024-03-22T01:13:08;99874.38;;;-1.78;62.60
62655;BME280;48717;55.556;37.816;2024-03-22T01:15:34;99871.63;;;-1.81;63.05
62655;BME280;48717;55.556;37.816;2024-03-22T01:18:02;99864.78;;;-1.81;63.59
62655;BME280;48717;55.556;37.816;2024-03-22T01:20:28;99865.50;;;-1.84;62.93
62655;BME280;48717;55.556;37.816;2024-03-22T01:22:55;99855.66;;;-1.91;63.05
62655;BME280;48717;55.556;37.816;2024-03-22T01:25:21;99867.75;;;-1.90;63.56
62655;BME280;48717;55.556;37.816;2024-03-22T01:27:47;99862.59;;;-1.90;64.05
62655;BME280;48717;55.556;37.816;2024-03-22T01:30:14;99860.75;;;-1.92;64.02
62655;BME280;48717;55.556;37.816;2024-03-22T01:32:40;99863.41;;;-1.91;64.15
62655;BME280;48717;55.556;37.816;2024-03-22T01:35:08;99856.16;;;-1.98;64.15
62655;BME280;48717;55.556;37.816;2024-03-22T01:37:34;99856.03;;;-2.01;64.62
62655;BME280;48717;55.556;37.816;2024-03-22T01:40:01;99859.25;;;-2.05;65.34
62655;BME280;48717;55.556;37.816;2024-03-22T01:42:29;99856.59;;;-2.07;65.37
62655;BME280;48717;55.556;37.816;2024-03-22T01:44:55;99849.50;;;-2.11;65.08
62655;BME280;48717;55.556;37.816;2024-03-22T01:47:21;99841.38;;;-2.19;65.67
62655;BME280;48717;55.556;37.816;2024-03-22T01:49:49;99850.97;;;-2.16;65.68
62655;BME280;48717;55.556;37.816;2024-03-22T01:52:16;99831.75;;;-2.21;66.02
62655;BME280;48717;55.556;37.816;2024-03-22T01:54:43;99824.88;;;-2.21;66.23
62655;BME280;48717;55.556;37.816;2024-03-22T01:57:09;99822.00;;;-2.27;66.15
62655;BME280;48717;55.556;37.816;2024-03-22T01:59:36;99810.75;;;-2.28;66.32
62655;BME280;48717;55.556;37.816;2024-03-22T02:02:03;99823.59;;;-2.29;66.44
62655;BME280;48717;55.556;37.816;2024-03-22T02:04:29;99813.28;;;-2.29;66.56
62655;BME280;48717;55.556;37.816;2024-03-22T02:06:55;99815.84;;;-2.29;66.85
62655;BME280;48717;55.556;37.816;2024-03-22T02:09:21;99823.53;;;-2.31;66.76
62655;BME280;48717;55.556;37.816;2024-03-22T02:11:48;99812.97;;;-2.36;67.25
62655;BME280;48717;55.556;37.816;2024-03-22T02:14:15;99817.09;;;-2.39;67.84
62655;BME280;48717;55.556;37.816;2024-03-22T02:16:41;99816.19;;;-2.40;67.39
62655;BME280;48717;55.556;37.816;2024-03-22T02:19:08;99812.81;;;-2.39;67.35
62655;BME280;48717;55.556;37.816;2024-03-22T02:21:35;99820.72;;;-2.36;67.68
62655;BME280;48717;55.556;37.816;2024-03-22T02:24:01;99811.03;;;-2.40;68.02
62655;BME280;48717;55.556;37.816;2024-03-22T02:26:27;99798.78;;;-2.44;68.17
62655;BME280;48717;55.556;37.816;2024-03-22T02:28:54;99808.06;;;-2.47;68.21
62655;BME280;48717;55.556;37.816;2024-03-22T02:31:20;99807.16;;;-2.48;68.42
62655;BME280;48717;55.556;37.816;2024-03-22T02:33:46;99805.41;;;-2.49;68.47
62655;BME280;48717;55.556;37.816;2024-03-22T02:36:13;99813.97;;;-2.50;68.41
62655;BME280;48717;55.556;37.816;2024-03-22T02:38:39;99812.03;;;-2.54;69.08
62655;BME280;48717;55.556;37.816;2024-03-22T02:41:06;99804.94;;;-2.58;68.78
62655;BME280;48717;55.556;37.816;2024-03-22T02:43:33;99793.50;;;-2.64;69.26
62655;BME280;48717;55.556;37.816;2024-03-22T02:46:00;99797.03;;;-2.62;69.14
62655;BME280;48717;55.556;37.816;2024-03-22T02:48:26;99802.84;;;-2.66;68.86
62655;BME280;48717;55.556;37.816;2024-03-22T02:50:57;99795.16;;;-2.64;69.13
62655;BME280;48717;55.556;37.816;2024-03-22T02:53:24;99797.50;;;-2.69;69.64
62655;BME280;48717;55.556;37.816;2024-03-22T02:55:51;99791.13;;;-2.76;69.48
62655;BME280;48717;55.556;37.816;2024-03-22T02:58:21;99803.56;;;-2.68;70.09
62655;BME280;48717;55.556;37.816;2024-03-22T03:00:48;99799.31;;;-2.68;69.65
62655;BME280;48717;55.556;37.816;2024-03-22T03:03:14;99780.59;;;-2.80;70.33
62655;BME280;48717;55.556;37.816;2024-03-22T03:05:42;99787.78;;;-2.74;70.24
62655;BME280;48717;55.556;37.816;2024-03-22T03:08:08;99780.59;;;-2.80;70.95
62655;BME280;48717;55.556;37.816;2024-03-22T03:10:36;99780.59;;;-2.80;70.78
62655;BME280;48717;55.556;37.816;2024-03-22T03:13:02;99772.66;;;-2.83;70.65
62655;BME280;48717;55.556;37.816;2024-03-22T03:15:29;99777.66;;;-2.86;71.64
62655;BME280;48717;55.556;37.816;2024-03-22T03:17:55;99784.63;;;-2.85;71.05
62655;BME280;48717;55.556;37.816;2024-03-22T03:20:21;99773.22;;;-2.89;71.70
62655;BME280;48717;55.556;37.816;2024-03-22T03:22:47;99770.56;;;-2.91;72.15
62655;BME280;48717;55.556;37.816;2024-03-22T03:25:14;99758.97;;;-2.99;71.80
62655;BME280;48717;55.556;37.816;2024-03-22T03:27:40;99771.25;;;-2.95;71.80
62655;BME280;48717;55.556;37.816;2024-03-22T03:30:07;99770.25;;;-2.97;71.92
62655;BME280;48717;55.556;37.816;2024-03-22T03:32:34;99775.25;;;-3.00;72.10
62655;BME280;48717;55.556;37.816;2024-03-22T03:35:01;99785.00;;;-2.94;73.01
62655;BME280;48717;55.556;37.816;2024-03-22T03:37:31;99783.34;;;-2.94;72.62
62655;BME280;48717;55.556;37.816;2024-03-22T03:39:57;99782.34;;;-2.96;73.69
62655;BME280;48717;55.556;37.816;2024-03-22T03:42:23;99749.59;;;-3.13;73.46
62655;BME280;48717;55.556;37.816;2024-03-22T03:44:49;99753.19;;;-2.95;73.59
62655;BME280;48717;55.556;37.816;2024-03-22T03:47:16;99772.38;;;-2.90;73.12
62655;BME280;48717;55.556;37.816;2024-03-22T03:49:42;99758.91;;;-2.84;72.86
62655;BME280;48717;55.556;37.816;2024-03-22T03:52:10;99748.63;;;-2.82;73.32
62655;BME280;48717;55.556;37.816;2024-03-22T03:54:37;99753.97;;;-2.79;73.38
62655;BME280;48717;55.556;37.816;2024-03-22T03:57:03;99756.19;;;-2.69;73.07
62655;BME280;48717;55.556;37.816;2024-03-22T03:59:30;99739.03;;;-2.68;73.16
62655;BME280;48717;55.556;37.816;2024-03-22T04:01:56;99744.66;;;-2.59;72.94
62655;BME280;48717;55.556;37.816;2024-03-22T04:04:22;99745.53;;;-2.42;72.26
62655;BME280;48717;55.556;37.816;2024-03-22T04:06:48;99747.41;;;-2.38;72.07
62655;BME280;48717;55.556;37.816;2024-03-22T04:09:16;99749.59;;;-2.29;71.26
62655;BME280;48717;55.556;37.816;2024-03-22T04:11:42;99748.03;;;-2.25;71.53
62655;BME280;48717;55.556;37.816;2024-03-22T04:14:08;99756.84;;;-2.03;70.76
62655;BME280;48717;55.556;37.816;2024-03-22T04:16:34;99742.53;;;-1.97;70.33
62655;BME280;48717;55.556;37.816;2024-03-22T04:19:00;99740.53;;;-1.84;70.33
62655;BME280;48717;55.556;37.816;2024-03-22T04:21:27;99745.41;;;-1.72;69.40
62655;BME280;48717;55.556;37.816;2024-03-22T04:23:53;99746.25;;;-1.53;69.03
62655;BME280;48717;55.556;37.816;2024-03-22T04:26:19;99745.97;;;-1.41;67.68
62655;BME280;48717;55.556;37.816;2024-03-22T04:28:46;99742.75;;;-1.36;68.10
62655;BME280;48717;55.556;37.816;2024-03-22T04:31:13;99729.78;;;-1.37;68.10
62655;BME280;48717;55.556;37.816;2024-03-22T04:33:40;99725.13;;;-1.25;67.79
62655;BME280;48717;55.556;37.816;2024-03-22T04:36:07;99735.53;;;-1.23;67.24
62655;BME280;48717;55.556;37.816;2024-03-22T04:38:35;99733.38;;;-1.34;67.01
62655;BME280;48717;55.556;37.816;2024-03-22T04:41:02;99734.31;;;-1.32;67.94
62655;BME280;48717;55.556;37.816;2024-03-22T04:43:28;99742.47;;;-1.22;67.48
62655;BME280;48717;55.556;37.816;2024-03-22T04:45:54;99740.69;;;-1.05;66.27
62655;BME280;48717;55.556;37.816;2024-03-22T04:48:21;99730.38;;;-0.84;65.70
62655;BME280;48717;55.556;37.816;2024-03-22T04:50:49;99725.19;;;-0.84;65.10
62655;BME280;48717;55.556;37.816;2024-03-22T04:53:17;99739.63;;;-0.69;65.20
62655;BME280;48717;55.556;37.816;2024-03-22T04:55:44;99749.75;;;-0.54;64.08
62655;BME280;48717;55.556;37.816;2024-03-22T04:58:19;99747.91;;;-0.37;64.08
62655;BME280;48717;55.556;37.816;2024-03-22T05:00:46;99739.22;;;-0.16;62.73
62655;BME280;48717;55.556;37.816;2024-03-22T05:03:13;99733.97;;;0.04;62.16
62655;BME280;48717;55.556;37.816;2024-03-22T05:05:40;99726.34;;;0.30;61.27
62655;BME280;48717;55.556;37.816;2024-03-22T05:08:07;99741.22;;;0.57;59.71
62655;BME280;48717;55.556;37.816;2024-03-22T05:10:34;99730.44;;;0.93;59.64
62655;BME280;48717;55.556;37.816;2024-03-22T05:13:01;99710.09;;;1.30;57.90
62655;BME280;48717;55.556;37.816;2024-03-22T05:15:27;99727.69;;;1.65;56.05
62655;BME280;48717;55.556;37.816;2024-03-22T05:17:56;99709.47;;;1.91;55.04
62655;BME280;48717;55.556;37.816;2024-03-22T05:20:22;99720.28;;;2.03;53.43
62655;BME280;48717;55.556;37.816;2024-03-22T05:22:49;99722.63;;;1.68;54.43
62655;BME280;48717;55.556;37.816;2024-03-22T05:25:15;99724.53;;;1.48;55.54
62655;BME280;48717;55.556;37.816;2024-03-22T05:27:42;99723.09;;;1.83;55.67
62655;BME280;48717;55.556;37.816;2024-03-22T05:30:10;99710.63;;;2.28;53.33
62655;BME280;48717;55.556;37.816;2024-03-22T05:32:37;99720.63;;;2.72;52.69
62655;BME280;48717;55.556;37.816;2024-03-22T05:35:04;99716.41;;;3.08;51.95
62655;BME280;48717;55.556;37.816;2024-03-22T05:37:31;99715.81;;;3.51;50.22
62655;BME280;48717;55.556;37.816;2024-03-22T05:39:57;99707.47;;;3.64;49.59
62655;BME280;48717;55.556;37.816;2024-03-22T05:42:24;99705.28;;;3.82;48.93
62655;BME280;48717;55.556;37.816;2024-03-22T05:44:51;99707.03;;;4.20;48.31
62655;BME280;48717;55.556;37.816;2024-03-22T05:47:19;99701.06;;;4.65;47.33
62655;BME280;48717;55.556;37.816;2024-03-22T05:49:46;99704.38;;;4.58;47.00
62655;BME280;48717;55.556;37.816;2024-03-22T05:52:12;99695.84;;;4.24;46.60
62655;BME280;48717;55.556;37.816;2024-03-22T05:54:38;99708.81;;;4.21;47.92
62655;BME280;48717;55.556;37.816;2024-03-22T05:57:04;99677.41;;;3.81;47.63
62655;BME280;48717;55.556;37.816;2024-03-22T05:59:31;99685.97;;;3.73;48.84
62655;BME280;48717;55.556;37.816;2024-03-22T06:01:58;99683.44;;;3.78;48.93
62655;BME280;48717;55.556;37.816;2024-03-22T06:04:24;99694.47;;;4.03;48.46
62655;BME280;48717;55.556;37.816;2024-03-22T06:06:50;99694.00;;;4.21;47.76
62655;BME280;48717;55.556;37.816;2024-03-22T06:09:17;99694.00;;;4.61;47.00
62655;BME280;48717;55.556;37.816;2024-03-22T06:11:50;99677.31;;;4.97;46.10
62655;BME280;48717;55.556;37.816;2024-03-22T06:14:17;99676.41;;;5.42;44.75
62655;BME280;48717;55.556;37.816;2024-03-22T06:16:43;99686.72;;;5.85;44.04
62655;BME280;48717;55.556;37.816;2024-03-22T06:19:10;99691.69;;;6.23;43.26
62655;BME280;48717;55.556;37.816;2024-03-22T06:21:36;99672.53;;;6.27;42.96
62655;BME280;48717;55.556;37.816;2024-03-22T06:24:02;99660.47;;;6.39;42.24
62655;BME280;48717;55.556;37.816;2024-03-22T06:26:29;99667.94;;;6.77;41.52
62655;BME280;48717;55.556;37.816;2024-03-22T06:28:55;99656.94;;;7.10;40.78
62655;BME280;48717;55.556;37.816;2024-03-22T06:31:22;99673.75;;;7.30;40.23
62655;BME280;48717;55.556;37.816;2024-03-22T06:33:48;99667.75;;;7.42;39.47
62655;BME280;48717;55.556;37.816;2024-03-22T06:36:14;99674.97;;;7.67;39.80
62655;BME280;48717;55.556;37.816;2024-03-22T06:38:41;99658.53;;;7.93;38.98
62655;BME280;48717;55.556;37.816;2024-03-22T06:41:07;99660.34;;;8.02;38.38
62655;BME280;48717;55.556;37.816;2024-03-22T06:43:33;99658.75;;;8.24;37.94
62655;BME280;48717;55.556;37.816;2024-03-22T06:46:02;99650.09;;;8.44;38.04
62655;BME280;48717;55.556;37.816;2024-03-22T06:48:28;99655.44;;;8.56;37.10
62655;BME280;48717;55.556;37.816;2024-03-22T06:50:54;99656.38;;;8.72;36.73
62655;BME280;48717;55.556;37.816;2024-03-22T06:53:21;99643.25;;;8.80;36.94
62655;BME280;48717;55.556;37.816;2024-03-22T06:55:47;99656.22;;;8.44;36.52
62655;BME280;48717;55.556;37.816;2024-03-22T06:58:13;99658.97;;;8.61;36.15
62655;BME280;48717;55.556;37.816;2024-03-22T07:00:40;99659.94;;;8.85;36.84
62655;BME280;48717;55.556;37.816;2024-03-22T07:03:06;99638.94;;;9.09;36.15
62655;BME280;48717;55.556;37.816;2024-03-22T07:05:32;99650.41;;;9.53;34.89
62655;BME280;48717;55.556;37.816;2024-03-22T07:07:58;99639.88;;;9.69;34.95
62655;BME280;48717;55.556;37.816;2024-03-22T07:10:25;99645.13;;;10.00;34.87
62655;BME280;48717;55.556;37.816;2024-03-22T07:12:57;99628.44;;;10.09;34.04
62655;BME280;48717;55.556;37.816;2024-03-22T07:15:23;99643.34;;;10.24;33.42
62655;BME280;48717;55.556;37.816;2024-03-22T07:17:51;99638.00;;;10.38;33.73
62655;BME280;48717;55.556;37.816;2024-03-22T07:20:17;99635.22;;;10.84;33.28
62655;BME280;48717;55.556;37.816;2024-03-22T07:22:44;99616.50;;;11.25;32.01
62655;BME280;48717;55.556;37.816;2024-03-22T07:25:11;99637.75;;;11.08;32.40
62655;BME280;48717;55.556;37.816;2024-03-22T07:27:38;99619.06;;;11.34;31.81
62655;BME280;48717;55.556;37.816;2024-03-22T07:30:04;99625.25;;;11.32;31.34
62655;BME280;48717;55.556;37.816;2024-03-22T07:32:31;99614.91;;;11.01;31.54
62655;BME280;48717;55.556;37.816;2024-03-22T07:35:00;99612.34;;;10.90;32.01
62655;BME280;48717;55.556;37.816;2024-03-22T07:37:27;99617.75;;;10.58;31.54
62655;BME280;48717;55.556;37.816;2024-03-22T07:39:54;99609.66;;;10.97;31.32
62655;BME280;48717;55.556;37.816;2024-03-22T07:42:20;99619.41;;;10.81;31.25
62655;BME280;48717;55.556;37.816;2024-03-22T07:44:47;99585.09;;;10.86;31.16
62655;BME280;48717;55.556;37.816;2024-03-22T07:47:14;99597.88;;;11.45;30.40
62655;BME280;48717;55.556;37.816;2024-03-22T07:49:40;99590.06;;;11.33;30.32
62655;BME280;48717;55.556;37.816;2024-03-22T07:52:06;99597.91;;;12.35;29.46
62655;BME280;48717;55.556;37.816;2024-03-22T07:54:33;99582.72;;;12.51;28.72
62655;BME280;48717;55.556;37.816;2024-03-22T07:56:59;99577.47;;;13.11;28.75
62655;BME280;48717;55.556;37.816;2024-03-22T07:59:25;99578.09;;;13.83;26.76
62655;BME280;48717;55.556;37.816;2024-03-22T08:01:51;99573.59;;;13.87;27.05
62655;BME280;48717;55.556;37.816;2024-03-22T08:04:17;99572.97;;;14.20;25.33
62655;BME280;48717;55.556;37.816;2024-03-22T08:06:44;99542.69;;;14.73;25.75
62655;BME280;48717;55.556;37.816;2024-03-22T08:09:10;99556.44;;;15.30;24.95
62655;BME280;48717;55.556;37.816;2024-03-22T08:11:36;99547.03;;;15.51;25.13
62655;BME280;48717;55.556;37.816;2024-03-22T08:14:03;99550.97;;;15.71;23.90
62655;BME280;48717;55.556;37.816;2024-03-22T08:16:29;99560.22;;;15.56;24.48
62655;BME280;48717;55.556;37.816;2024-03-22T08:18:56;99553.56;;;15.39;24.25
62655;BME280;48717;55.556;37.816;2024-03-22T08:21:26;99547.09;;;15.13;22.95
62655;BME280;48717;55.556;37.816;2024-03-22T08:23:52;99540.59;;;15.25;23.91
62655;BME280;48717;55.556;37.816;2024-03-22T08:26:18;99527.03;;;15.38;22.76
62655;BME280;48717;55.556;37.816;2024-03-22T08:28:46;99529.25;;;15.55;22.58
62655;BME280;48717;55.556;37.816;2024-03-22T08:31:13;99533.16;;;15.75;21.62
62655;BME280;48717;55.556;37.816;2024-03-22T08:33:40;99528.94;;;16.01;21.53
62655;BME280;48717;55.556;37.816;2024-03-22T08:36:06;99529.81;;;15.66;20.77
62655;BME280;48717;55.556;37.816;2024-03-22T08:38:33;99524.75;;;15.57;20.41
62655;BME280;48717;55.556;37.816;2024-03-22T08:40:59;99505.09;;;15.98;20.19
62655;BME280;48717;55.556;37.816;2024-03-22T08:43:26;99508.31;;;16.09;20.35
62655;BME280;48717;55.556;37.816;2024-03-22T08:45:55;99508.97;;;15.84;20.25
62655;BME280;48717;55.556;37.816;2024-03-22T08:48:22;99504.53;;;15.51;21.03
62655;BME280;48717;55.556;37.816;2024-03-22T08:50:48;99500.69;;;14.10;22.33
62655;BME280;48717;55.556;37.816;2024-03-22T08:53:14;99508.53;;;13.20;23.24
62655;BME280;48717;55.556;37.816;2024-03-22T08:55:47;99513.38;;;13.47;23.49
62655;BME280;48717;55.556;37.816;2024-03-22T08:58:14;99503.16;;;13.25;23.60
62655;BME280;48717;55.556;37.816;2024-03-22T09:00:41;99499.97;;;13.57;23.12
62655;BME280;48717;55.556;37.816;2024-03-22T09:03:08;99494.06;;;13.40;23.22
62655;BME280;48717;55.556;37.816;2024-03-22T09:05:34;99481.13;;;13.23;23.32
62655;BME280;48717;55.556;37.816;2024-03-22T09:08:01;99479.91;;;13.90;23.67
62655;BME280;48717;55.556;37.816;2024-03-22T09:10:30;99487.50;;;13.63;22.26
62655;BME280;48717;55.556;37.816;2024-03-22T09:12:56;99482.75;;;13.80;22.84
62655;BME280;48717;55.556;37.816;2024-03-22T09:15:23;99476.81;;;14.12;22.77
62655;BME280;48717;55.556;37.816;2024-03-22T09:17:51;99476.09;;;14.46;23.10
62655;BME280;48717;55.556;37.816;2024-03-22T09:20:20;99471.63;;;13.61;21.48
62655;BME280;48717;55.556;37.816;2024-03-22T09:22:46;99472.00;;;12.89;23.16
62655;BME280;48717;55.556;37.816;2024-03-22T09:25:12;99464.84;;;12.94;23.44
62655;BME280;48717;55.556;37.816;2024-03-22T09:27:38;99467.72;;;13.34;23.17
62655;BME280;48717;55.556;37.816;2024-03-22T09:30:05;99461.25;;;13.96;22.96
62655;BME280;48717;55.556;37.816;2024-03-22T09:32:32;99460.75;;;14.59;21.33
62655;BME280;48717;55.556;37.816;2024-03-22T09:34:58;99467.16;;;14.50;21.15
62655;BME280;48717;55.556;37.816;2024-03-22T09:37:25;99455.94;;;14.75;21.15
62655;BME280;48717;55.556;37.816;2024-03-22T09:39:51;99464.72;;;14.80;21.36
62655;BME280;48717;55.556;37.816;2024-03-22T09:42:17;99457.06;;;14.66;20.58
62655;BME280;48717;55.556;37.816;2024-03-22T09:44:48;99458.06;;;14.60;20.82
62655;BME280;48717;55.556;37.816;2024-03-22T09:47:15;99448.34;;;14.99;21.27
62655;BME280;48717;55.556;37.816;2024-03-22T09:49:42;99452.53;;;15.43;20.98
62655;BME280;48717;55.556;37.816;2024-03-22T09:52:13;99454.25;;;15.44;20.53
62655;BME280;48717;55.556;37.816;2024-03-22T09:54:44;99445.88;;;14.91;21.21
62655;BME280;48717;55.556;37.816;2024-03-22T09:57:14;99456.97;;;15.07;21.03
62655;BME280;48717;55.556;37.816;2024-03-22T09:59:42;99456.00;;;15.11;21.30
62655;BME280;48717;55.556;37.816;2024-03-22T10:02:11;99442.97;;;15.69;20.59
62655;BME280;48717;55.556;37.816;2024-03-22T10:04:42;99433.84;;;14.74;21.71
62655;BME280;48717;55.556;37.816;2024-03-22T10:07:08;99453.69;;;14.18;20.73
62655;BME280;48717;55.556;37.816;2024-03-22T10:09:37;99451.53;;;13.51;21.28
62655;BME280;48717;55.556;37.816;2024-03-22T10:12:04;99449.22;;;13.79;20.83
62655;BME280;48717;55.556;37.816;2024-03-22T10:14:30;99439.91;;;14.02;21.40
62655;BME280;48717;55.556;37.816;2024-03-22T10:16:57;99441.84;;;13.94;20.33
62655;BME280;48717;55.556;37.816;2024-03-22T10:19:24;99449.72;;;13.02;21.29
62655;BME280;48717;55.556;37.816;2024-03-22T10:22:01;99444.06;;;12.69;22.19
62655;BME280;48717;55.556;37.816;2024-03-22T10:24:29;99424.94;;;12.51;22.02
62655;BME280;48717;55.556;37.816;2024-03-22T10:26:56;99407.97;;;12.65;22.34
62655;BME280;48717;55.556;37.816;2024-03-22T10:29:23;99414.78;;;13.30;21.87
62655;BME280;48717;55.556;37.816;2024-03-22T10:31:51;99412.91;;;13.83;21.62
62655;BME280;48717;55.556;37.816;2024-03-22T10:34:20;99411.31;;;13.76;21.28
62655;BME280;48717;55.556;37.816;2024-03-22T10:36:49;99391.34;;;14.40;20.89
62655;BME280;48717;55.556;37.816;2024-03-22T10:39:17;99397.63;;;13.96;20.98
62655;BME280;48717;55.556;37.816;2024-03-22T10:41:47;99398.47;;;13.98;21.66
62655;BME280;48717;55.556;37.816;2024-03-22T10:44:15;99383.13;;;13.72;21.96
62655;BME280;48717;55.556;37.816;2024-03-22T10:46:47;99392.59;;;14.25;20.96
62655;BME280;48717;55.556;37.816;2024-03-22T10:49:18;99392.81;;;14.90;21.46
62655;BME280;48717;55.556;37.816;2024-03-22T10:52:01;99371.88;;;14.41;21.70
62655;BME280;48717;55.556;37.816;2024-03-22T10:54:35;99374.81;;;14.65;22.92
62655;BME280;48717;55.556;37.816;2024-03-22T10:57:02;99371.13;;;14.72;22.37
62655;BME280;48717;55.556;37.816;2024-03-22T10:59:33;99386.00;;;14.79;22.75
62655;BME280;48717;55.556;37.816;2024-03-22T11:02:04;99366.38;;;14.48;22.76
62655;BME280;48717;55.556;37.816;2024-03-22T11:04:33;99370.72;;;14.15;22.87
62655;BME280;48717;55.556;37.816;2024-03-22T11:07:00;99371.78;;;14.44;22.34
62655;BME280;48717;55.556;37.816;2024-03-22T11:09:27;99379.72;;;14.45;22.67
62655;BME280;48717;55.556;37.816;2024-03-22T11:11:55;99368.47;;;14.72;22.68
62655;BME280;48717;55.556;37.816;2024-03-22T11:14:27;99355.50;;;14.96;22.55
62655;BME280;48717;55.556;37.816;2024-03-22T11:16:54;99358.75;;;15.07;22.15
62655;BME280;48717;55.556;37.816;2024-03-22T11:19:21;99350.56;;;15.77;21.54
62655;BME280;48717;55.556;37.816;2024-03-22T11:21:48;99339.03;;;16.08;21.25
62655;BME280;48717;55.556;37.816;2024-03-22T11:24:15;99329.78;;;16.49;20.73
62655;BME280;48717;55.556;37.816;2024-03-22T11:26:42;99327.03;;;17.03;20.71
62655;BME280;48717;55.556;37.816;2024-03-22T11:29:10;99337.22;;;16.64;20.45
62655;BME280;48717;55.556;37.816;2024-03-22T11:31:37;99332.31;;;16.25;21.43
62655;BME280;48717;55.556;37.816;2024-03-22T11:34:03;99335.00;;;15.64;21.60
62655;BME280;48717;55.556;37.816;2024-03-22T11:36:29;99315.84;;;16.13;21.52
62655;BME280;48717;55.556;37.816;2024-03-22T11:38:56;99322.50;;;16.27;21.86
62655;BME280;48717;55.556;37.816;2024-03-22T11:41:31;99323.06;;;16.89;20.69
62655;BME280;48717;55.556;37.816;2024-03-22T11:43:59;99304.91;;;16.50;20.66
62655;BME280;48717;55.556;37.816;2024-03-22T11:46:27;99316.16;;;16.58;21.14
62655;BME280;48717;55.556;37.816;2024-03-22T11:48:54;99314.19;;;16.63;20.96
62655;BME280;48717;55.556;37.816;2024-03-22T11:51:21;99315.75;;;16.70;20.36
62655;BME280;48717;55.556;37.816;2024-03-22T11:53:51;99302.06;;;17.07;20.09
62655;BME280;48717;55.556;37.816;2024-03-22T11:56:20;99300.78;;;16.39;20.75
62655;BME280;48717;55.556;37.816;2024-03-22T11:58:48;99275.91;;;15.56;21.02
62655;BME280;48717;55.556;37.816;2024-03-22T12:01:16;99300.03;;;15.48;21.48
62655;BME280;48717;55.556;37.816;2024-03-22T12:03:48;99285.22;;;15.71;21.66
62655;BME280;48717;55.556;37.816;2024-03-22T12:06:15;99256.53;;;16.10;20.96
62655;BME280;48717;55.556;37.816;2024-03-22T12:08:42;99281.09;;;16.18;20.93
62655;BME280;48717;55.556;37.816;2024-03-22T12:11:10;99263.06;;;16.79;19.77
62655;BME280;48717;55.556;37.816;2024-03-22T12:13:38;99260.00;;;16.13;20.57
62655;BME280;48717;55.556;37.816;2024-03-22T12:16:05;99254.19;;;15.42;20.69
62655;BME280;48717;55.556;37.816;2024-03-22T12:18:32;99250.72;;;15.39;21.97
62655;BME280;48717;55.556;37.816;2024-03-22T12:20:59;99245.03;;;15.52;21.60
62655;BME280;48717;55.556;37.816;2024-03-22T12:23:26;99241.47;;;15.53;21.05
62655;BME280;48717;55.556;37.816;2024-03-22T12:25:52;99236.16;;;15.53;21.32
62655;BME280;48717;55.556;37.816;2024-03-22T12:28:21;99228.88;;;15.58;21.10
62655;BME280;48717;55.556;37.816;2024-03-22T12:30:51;99229.81;;;16.14;20.50
62655;BME280;48717;55.556;37.816;2024-03-22T12:33:17;99217.59;;;16.34;20.58
62655;BME280;48717;55.556;37.816;2024-03-22T12:35:43;99228.09;;;17.15;19.97
62655;BME280;48717;55.556;37.816;2024-03-22T12:38:10;99200.25;;;16.99;19.79
62655;BME280;48717;55.556;37.816;2024-03-22T12:40:39;99195.22;;;16.91;19.78
62655;BME280;48717;55.556;37.816;2024-03-22T12:43:06;99189.81;;;16.68;20.05
62655;BME280;48717;55.556;37.816;2024-03-22T12:45:32;99185.06;;;17.71;19.38
62655;BME280;48717;55.556;37.816;2024-03-22T12:47:59;99190.28;;;17.28;19.65
62655;BME280;48717;55.556;37.816;2024-03-22T12:50:27;99184.03;;;16.81;20.23
62655;BME280;48717;55.556;37.816;2024-03-22T12:52:54;99167.97;;;16.84;20.26